sensor_id;sensor_type;location;lat;lon;timestamp;temperature;humidity
2897;DHT22;1458;49.728;9.228;2022-07-21T00:01:52;20.10;99.90
2897;DHT22;1458;49.728;9.228;2022-07-21T00:04:21;20.10;99.90
2897;DHT22;1458;49.728;9.228;2022-07-21T00:06:48;20.00;99.90
2897;DHT22;1458;49.728;9.228;2022-07-21T00:09:17;19.90;99.90
2897;DHT22;1458;49.728;9.228;2022-07-21T00:11:44;19.90;99.90
2897;DHT22;1458;49.728;9.228;2022-07-21T00:14:13;19.80;99.90
2897;DHT22;1458;49.728;9.228;2022-07-21T00:16:42;19.80;99.90
2897;DHT22;1458;49.728;9.228;2022-07-21T00:19:10;19.90;99.90
2897;DHT22;1458;49.728;9.228;2022-07-21T00:21:38;19.80;99.90
2897;DHT22;1458;49.728;9.228;2022-07-21T00:24:06;19.90;99.90
2897;DHT22;1458;49.728;9.228;2022-07-21T00:26:33;19.80;99.90
2897;DHT22;1458;49.728;9.228;2022-07-21T00:29:01;19.70;99.90
2897;DHT22;1458;49.728;9.228;2022-07-21T00:31:30;19.70;99.90
2897;DHT22;1458;49.728;9.228;2022-07-21T00:33:57;19.60;99.90
2897;DHT22;1458;49.728;9.228;2022-07-21T00:36:25;19.70;99.90
2897;DHT22;1458;49.728;9.228;2022-07-21T00:38:52;19.80;99.90
2897;DHT22;1458;49.728;9.228;2022-07-21T00:41:20;19.70;99.90
2897;DHT22;1458;49.728;9.228;2022-07-21T00:43:47;19.70;99.90
2897;DHT22;1458;49.728;9.228;2022-07-21T00:46:15;19.60;99.90
2897;DHT22;1458;49.728;9.228;2022-07-21T00:48:43;19.60;99.90
2897;DHT22;1458;49.728;9.228;2022-07-21T00:51:11;19.60;99.90
2897;DHT22;1458;49.728;9.228;2022-07-21T00:53:38;19.50;99.90
2897;DHT22;1458;49.728;9.228;2022-07-21T00:56:06;19.40;99.90
2897;DHT22;1458;49.728;9.228;2022-07-21T00:58:34;19.40;99.90
2897;DHT22;1458;49.728;9.228;2022-07-21T01:01:04;19.40;99.90
2897;DHT22;1458;49.728;9.228;2022-07-21T01:03:32;19.40;99.90
2897;DHT22;1458;49.728;9.228;2022-07-21T01:06:00;19.40;99.90
2897;DHT22;1458;49.728;9.228;2022-07-21T01:08:31;19.40;99.90
2897;DHT22;1458;49.728;9.228;2022-07-21T01:10:59;19.30;99.90
2897;DHT22;1458;49.728;9.228;2022-07-21T01:13:26;19.30;99.90
2897;DHT22;1458;49.728;9.228;2022-07-21T01:15:55;19.30;99.90
2897;DHT22;1458;49.728;9.228;2022-07-21T01:18:23;19.20;99.90
2897;DHT22;1458;49.728;9.228;2022-07-21T01:20:52;19.20;99.90
2897;DHT22;1458;49.728;9.228;2022-07-21T01:23:21;19.30;99.90
2897;DHT22;1458;49.728;9.228;2022-07-21T01:25:50;19.20;99.90
2897;DHT22;1458;49.728;9.228;2022-07-21T01:28:18;19.20;99.90
2897;DHT22;1458;49.728;9.228;2022-07-21T01:30:46;19.10;99.90
2897;DHT22;1458;49.728;9.228;2022-07-21T01:33:13;19.10;99.90
2897;DHT22;1458;49.728;9.228;2022-07-21T01:35:41;19.10;99.90
2897;DHT22;1458;49.728;9.228;2022-07-21T01:38:10;19.10;99.90
2897;DHT22;1458;49.728;9.228;2022-07-21T01:40:57;19.10;99.90
2897;DHT22;1458;49.728;9.228;2022-07-21T01:43:42;19.10;99.90
2897;DHT22;1458;49.728;9.228;2022-07-21T01:46:11;19.00;99.90
2897;DHT22;1458;49.728;9.228;2022-07-21T01:48:41;19.00;99.90
2897;DHT22;1458;49.728;9.228;2022-07-21T01:51:09;19.00;99.90
2897;DHT22;1458;49.728;9.228;2022-07-21T01:53:38;18.90;99.90
2897;DHT22;1458;49.728;9.228;2022-07-21T01:56:08;19.00;99.90
2897;DHT22;1458;49.728;9.228;2022-07-21T01:58:36;19.10;99.90
2897;DHT22;1458;49.728;9.228;2022-07-21T02:01:07;19.10;99.90
2897;DHT22;1458;49.728;9.228;2022-07-21T02:03:34;19.10;99.90
2897;DHT22;1458;49.728;9.228;2022-07-21T02:06:06;19.00;99.90
2897;DHT22;1458;49.728;9.228;2022-07-21T02:08:35;19.00;99.90
2897;DHT22;1458;49.728;9.228;2022-07-21T02:11:08;18.90;99.90
2897;DHT22;1458;49.728;9.228;2022-07-21T02:13:36;18.90;99.90
2897;DHT22;1458;49.728;9.228;2022-07-21T02:16:07;19.00;99.90
2897;DHT22;1458;49.728;9.228;2022-07-21T02:18:35;19.00;99.90
2897;DHT22;1458;49.728;9.228;2022-07-21T02:21:06;19.10;99.90
2897;DHT22;1458;49.728;9.228;2022-07-21T02:23:33;19.10;99.90
2897;DHT22;1458;49.728;9.228;2022-07-21T02:26:07;19.10;99.90
2897;DHT22;1458;49.728;9.228;2022-07-21T02:28:35;19.20;99.90
2897;DHT22;1458;49.728;9.228;2022-07-21T02:31:05;19.30;99.90
2897;DHT22;1458;49.728;9.228;2022-07-21T02:33:34;19.40;99.90
2897;DHT22;1458;49.728;9.228;2022-07-21T02:36:01;19.40;99.90
2897;DHT22;1458;49.728;9.228;2022-07-21T02:38:31;19.30;99.90
2897;DHT22;1458;49.728;9.228;2022-07-21T02:40:59;19.30;99.90
2897;DHT22;1458;49.728;9.228;2022-07-21T02:43:28;19.40;99.90
2897;DHT22;1458;49.728;9.228;2022-07-21T02:45:55;19.30;99.90
2897;DHT22;1458;49.728;9.228;2022-07-21T02:48:23;19.30;99.90
2897;DHT22;1458;49.728;9.228;2022-07-21T02:50:50;19.40;99.90
2897;DHT22;1458;49.728;9.228;2022-07-21T02:53:19;19.40;99.90
2897;DHT22;1458;49.728;9.228;2022-07-21T02:55:49;19.50;99.90
2897;DHT22;1458;49.728;9.228;2022-07-21T02:58:19;19.40;99.90
2897;DHT22;1458;49.728;9.228;2022-07-21T03:00:53;19.50;99.90
2897;DHT22;1458;49.728;9.228;2022-07-21T03:03:22;19.50;99.90
2897;DHT22;1458;49.728;9.228;2022-07-21T03:05:50;19.50;99.90
2897;DHT22;1458;49.728;9.228;2022-07-21T03:08:18;19.50;99.90
2897;DHT22;1458;49.728;9.228;2022-07-21T03:10:46;19.50;99.90
2897;DHT22;1458;49.728;9.228;2022-07-21T03:13:14;19.50;99.90
2897;DHT22;1458;49.728;9.228;2022-07-21T03:15:42;19.50;99.90
2897;DHT22;1458;49.728;9.228;2022-07-21T03:18:10;19.50;99.90
2897;DHT22;1458;49.728;9.228;2022-07-21T03:20:39;19.50;99.90
2897;DHT22;1458;49.728;9.228;2022-07-21T03:23:07;19.40;99.90
2897;DHT22;1458;49.728;9.228;2022-07-21T03:25:35;19.40;99.90
2897;DHT22;1458;49.728;9.228;2022-07-21T03:28:03;19.40;99.90
2897;DHT22;1458;49.728;9.228;2022-07-21T03:30:31;19.40;99.90
2897;DHT22;1458;49.728;9.228;2022-07-21T03:32:59;19.40;99.90
2897;DHT22;1458;49.728;9.228;2022-07-21T03:35:27;19.50;99.90
2897;DHT22;1458;49.728;9.228;2022-07-21T03:37:56;19.50;99.90
2897;DHT22;1458;49.728;9.228;2022-07-21T03:40:26;19.50;99.90
2897;DHT22;1458;49.728;9.228;2022-07-21T03:42:57;19.60;99.90
2897;DHT22;1458;49.728;9.228;2022-07-21T03:45:26;19.50;99.90
2897;DHT22;1458;49.728;9.228;2022-07-21T03:47:56;19.50;99.90
2897;DHT22;1458;49.728;9.228;2022-07-21T03:50:24;19.50;99.90
2897;DHT22;1458;49.728;9.228;2022-07-21T03:52:54;19.60;99.90
2897;DHT22;1458;49.728;9.228;2022-07-21T03:55:21;19.60;99.90
2897;DHT22;1458;49.728;9.228;2022-07-21T03:57:52;19.60;99.90
2897;DHT22;1458;49.728;9.228;2022-07-21T04:00:22;19.60;99.90
2897;DHT22;1458;49.728;9.228;2022-07-21T04:02:52;19.60;99.90
2897;DHT22;1458;49.728;9.228;2022-07-21T04:05:20;19.60;99.90
2897;DHT22;1458;49.728;9.228;2022-07-21T04:07:50;19.60;99.90
2897;DHT22;1458;49.728;9.228;2022-07-21T04:10:20;19.70;99.90
2897;DHT22;1458;49.728;9.228;2022-07-21T04:12:50;19.80;99.90
2897;DHT22;1458;49.728;9.228;2022-07-21T04:15:17;19.80;99.90
2897;DHT22;1458;49.728;9.228;2022-07-21T04:17:45;19.90;99.90
2897;DHT22;1458;49.728;9.228;2022-07-21T04:20:14;19.80;99.90
2897;DHT22;1458;49.728;9.228;2022-07-21T04:22:43;19.70;99.90
2897;DHT22;1458;49.728;9.228;2022-07-21T04:25:13;19.60;99.90
2897;DHT22;1458;49.728;9.228;2022-07-21T04:27:42;19.80;99.90
2897;DHT22;1458;49.728;9.228;2022-07-21T04:30:12;19.80;99.90
2897;DHT22;1458;49.728;9.228;2022-07-21T04:32:40;19.70;99.90
2897;DHT22;1458;49.728;9.228;2022-07-21T04:35:08;19.70;99.90
2897;DHT22;1458;49.728;9.228;2022-07-21T04:37:36;19.80;99.90
2897;DHT22;1458;49.728;9.228;2022-07-21T04:40:07;19.90;99.90
2897;DHT22;1458;49.728;9.228;2022-07-21T04:42:38;20.10;99.90
2897;DHT22;1458;49.728;9.228;2022-07-21T04:45:07;20.10;99.90
2897;DHT22;1458;49.728;9.228;2022-07-21T04:47:42;20.10;99.90
2897;DHT22;1458;49.728;9.228;2022-07-21T04:50:10;20.10;99.90
2897;DHT22;1458;49.728;9.228;2022-07-21T04:52:38;20.20;99.90
2897;DHT22;1458;49.728;9.228;2022-07-21T04:55:07;20.20;99.90
2897;DHT22;1458;49.728;9.228;2022-07-21T04:57:38;20.20;99.90
2897;DHT22;1458;49.728;9.228;2022-07-21T05:00:08;20.30;99.90
2897;DHT22;1458;49.728;9.228;2022-07-21T05:02:36;20.50;99.90
2897;DHT22;1458;49.728;9.228;2022-07-21T05:05:05;21.40;99.90
2897;DHT22;1458;49.728;9.228;2022-07-21T05:07:33;21.90;99.90
2897;DHT22;1458;49.728;9.228;2022-07-21T05:10:04;21.90;99.90
2897;DHT22;1458;49.728;9.228;2022-07-21T05:12:32;21.70;99.90
2897;DHT22;1458;49.728;9.228;2022-07-21T05:15:02;21.50;99.90
2897;DHT22;1458;49.728;9.228;2022-07-21T05:17:30;21.30;99.90
2897;DHT22;1458;49.728;9.228;2022-07-21T05:19:59;21.20;99.90
2897;DHT22;1458;49.728;9.228;2022-07-21T05:22:26;21.20;99.90
2897;DHT22;1458;49.728;9.228;2022-07-21T05:24:54;21.10;99.90
2897;DHT22;1458;49.728;9.228;2022-07-21T05:27:21;21.50;99.90
2897;DHT22;1458;49.728;9.228;2022-07-21T05:29:48;22.60;99.90
2897;DHT22;1458;49.728;9.228;2022-07-21T05:32:17;23.40;99.90
2897;DHT22;1458;49.728;9.228;2022-07-21T05:34:45;23.90;99.90
2897;DHT22;1458;49.728;9.228;2022-07-21T05:37:12;24.00;99.90
2897;DHT22;1458;49.728;9.228;2022-07-21T05:39:40;23.90;99.90
2897;DHT22;1458;49.728;9.228;2022-07-21T05:42:07;24.00;99.90
2897;DHT22;1458;49.728;9.228;2022-07-21T05:44:34;24.00;99.90
2897;DHT22;1458;49.728;9.228;2022-07-21T05:47:02;23.40;99.90
2897;DHT22;1458;49.728;9.228;2022-07-21T05:49:31;22.90;99.90
2897;DHT22;1458;49.728;9.228;2022-07-21T05:51:58;22.80;99.90
2897;DHT22;1458;49.728;9.228;2022-07-21T05:54:26;22.50;99.90
2897;DHT22;1458;49.728;9.228;2022-07-21T05:56:53;22.20;99.90
2897;DHT22;1458;49.728;9.228;2022-07-21T05:59:20;22.70;99.90
2897;DHT22;1458;49.728;9.228;2022-07-21T06:01:48;23.00;99.90
2897;DHT22;1458;49.728;9.228;2022-07-21T06:04:15;23.10;99.90
2897;DHT22;1458;49.728;9.228;2022-07-21T06:06:44;23.10;99.90
2897;DHT22;1458;49.728;9.228;2022-07-21T06:09:12;23.00;99.90
2897;DHT22;1458;49.728;9.228;2022-07-21T06:11:39;22.90;99.90
2897;DHT22;1458;49.728;9.228;2022-07-21T06:14:06;22.90;99.90
2897;DHT22;1458;49.728;9.228;2022-07-21T06:16:34;22.70;99.90
2897;DHT22;1458;49.728;9.228;2022-07-21T06:19:01;22.70;99.90
2897;DHT22;1458;49.728;9.228;2022-07-21T06:21:29;22.80;99.90
2897;DHT22;1458;49.728;9.228;2022-07-21T06:23:58;22.90;99.90
2897;DHT22;1458;49.728;9.228;2022-07-21T06:26:27;22.80;99.90
2897;DHT22;1458;49.728;9.228;2022-07-21T06:28:54;22.70;99.90
2897;DHT22;1458;49.728;9.228;2022-07-21T06:31:22;23.00;99.90
2897;DHT22;1458;49.728;9.228;2022-07-21T06:33:49;23.50;99.90
2897;DHT22;1458;49.728;9.228;2022-07-21T06:36:17;23.80;99.90
2897;DHT22;1458;49.728;9.228;2022-07-21T06:38:44;23.70;99.90
2897;DHT22;1458;49.728;9.228;2022-07-21T06:41:13;23.50;99.90
2897;DHT22;1458;49.728;9.228;2022-07-21T06:43:41;23.20;99.90
2897;DHT22;1458;49.728;9.228;2022-07-21T06:46:08;23.00;99.90
2897;DHT22;1458;49.728;9.228;2022-07-21T06:48:36;23.00;99.90
2897;DHT22;1458;49.728;9.228;2022-07-21T06:51:07;22.90;99.90
2897;DHT22;1458;49.728;9.228;2022-07-21T06:53:34;23.00;99.90
2897;DHT22;1458;49.728;9.228;2022-07-21T06:58:39;23.00;99.90
2897;DHT22;1458;49.728;9.228;2022-07-21T07:01:06;23.10;99.90
2897;DHT22;1458;49.728;9.228;2022-07-21T07:03:33;23.10;99.20
2897;DHT22;1458;49.728;9.228;2022-07-21T07:06:01;23.40;97.70
2897;DHT22;1458;49.728;9.228;2022-07-21T07:08:33;23.40;95.30
2897;DHT22;1458;49.728;9.228;2022-07-21T07:11:09;23.40;96.00
2897;DHT22;1458;49.728;9.228;2022-07-21T07:13:38;23.60;96.90
2897;DHT22;1458;49.728;9.228;2022-07-21T07:16:06;23.80;95.80
2897;DHT22;1458;49.728;9.228;2022-07-21T07:18:33;23.40;95.30
2897;DHT22;1458;49.728;9.228;2022-07-21T07:21:06;23.70;97.00
2897;DHT22;1458;49.728;9.228;2022-07-21T07:23:33;24.10;94.30
2897;DHT22;1458;49.728;9.228;2022-07-21T07:26:00;24.30;93.90
2897;DHT22;1458;49.728;9.228;2022-07-21T07:28:31;24.40;92.90
2897;DHT22;1458;49.728;9.228;2022-07-21T07:31:00;24.20;93.10
2897;DHT22;1458;49.728;9.228;2022-07-21T07:33:27;24.10;93.40
2897;DHT22;1458;49.728;9.228;2022-07-21T07:35:55;24.00;92.50
2897;DHT22;1458;49.728;9.228;2022-07-21T07:38:23;23.80;93.70
2897;DHT22;1458;49.728;9.228;2022-07-21T07:40:50;23.80;93.00
2897;DHT22;1458;49.728;9.228;2022-07-21T07:43:18;24.10;92.90
2897;DHT22;1458;49.728;9.228;2022-07-21T07:45:45;24.10;93.40
2897;DHT22;1458;49.728;9.228;2022-07-21T07:48:14;24.10;92.80
2897;DHT22;1458;49.728;9.228;2022-07-21T07:50:42;23.90;93.70
2897;DHT22;1458;49.728;9.228;2022-07-21T07:53:09;23.80;92.00
2897;DHT22;1458;49.728;9.228;2022-07-21T07:55:37;24.00;94.20
2897;DHT22;1458;49.728;9.228;2022-07-21T07:58:04;24.20;93.00
2897;DHT22;1458;49.728;9.228;2022-07-21T08:00:31;24.40;92.70
2897;DHT22;1458;49.728;9.228;2022-07-21T08:02:59;24.50;91.90
2897;DHT22;1458;49.728;9.228;2022-07-21T08:05:28;24.50;93.30
2897;DHT22;1458;49.728;9.228;2022-07-21T08:07:56;25.10;92.90
2897;DHT22;1458;49.728;9.228;2022-07-21T08:10:23;25.30;91.10
2897;DHT22;1458;49.728;9.228;2022-07-21T08:12:50;25.70;91.30
2897;DHT22;1458;49.728;9.228;2022-07-21T08:15:18;25.90;88.30
2897;DHT22;1458;49.728;9.228;2022-07-21T08:17:45;26.30;89.70
2897;DHT22;1458;49.728;9.228;2022-07-21T08:20:13;26.10;81.40
2897;DHT22;1458;49.728;9.228;2022-07-21T08:22:42;25.60;80.20
2897;DHT22;1458;49.728;9.228;2022-07-21T08:25:09;25.60;80.00
2897;DHT22;1458;49.728;9.228;2022-07-21T08:27:37;25.10;79.90
2897;DHT22;1458;49.728;9.228;2022-07-21T08:30:09;24.90;83.00
2897;DHT22;1458;49.728;9.228;2022-07-21T08:32:37;25.00;86.10
2897;DHT22;1458;49.728;9.228;2022-07-21T08:35:05;24.80;80.70
2897;DHT22;1458;49.728;9.228;2022-07-21T08:37:34;24.60;81.80
2897;DHT22;1458;49.728;9.228;2022-07-21T08:40:05;25.00;80.90
2897;DHT22;1458;49.728;9.228;2022-07-21T08:42:33;25.10;78.80
2897;DHT22;1458;49.728;9.228;2022-07-21T08:45:01;25.00;81.30
2897;DHT22;1458;49.728;9.228;2022-07-21T08:47:29;25.00;79.90
2897;DHT22;1458;49.728;9.228;2022-07-21T08:49:58;25.00;79.20
2897;DHT22;1458;49.728;9.228;2022-07-21T08:52:26;25.20;80.00
2897;DHT22;1458;49.728;9.228;2022-07-21T08:54:56;25.60;79.50
2897;DHT22;1458;49.728;9.228;2022-07-21T08:57:25;25.90;77.90
2897;DHT22;1458;49.728;9.228;2022-07-21T08:59:53;25.80;74.70
2897;DHT22;1458;49.728;9.228;2022-07-21T09:02:28;25.90;75.80
2897;DHT22;1458;49.728;9.228;2022-07-21T09:04:59;26.20;74.30
2897;DHT22;1458;49.728;9.228;2022-07-21T09:07:50;26.10;72.30
2897;DHT22;1458;49.728;9.228;2022-07-21T09:10:22;25.80;72.90
2897;DHT22;1458;49.728;9.228;2022-07-21T09:12:53;25.40;74.00
2897;DHT22;1458;49.728;9.228;2022-07-21T09:15:24;25.00;75.50
2897;DHT22;1458;49.728;9.228;2022-07-21T09:18:05;24.80;77.60
2897;DHT22;1458;49.728;9.228;2022-07-21T09:20:34;24.50;77.10
2897;DHT22;1458;49.728;9.228;2022-07-21T09:23:04;24.50;77.60
2897;DHT22;1458;49.728;9.228;2022-07-21T09:25:38;24.20;79.30
2897;DHT22;1458;49.728;9.228;2022-07-21T09:28:16;24.10;79.20
2897;DHT22;1458;49.728;9.228;2022-07-21T09:30:49;24.10;80.40
2897;DHT22;1458;49.728;9.228;2022-07-21T09:33:24;24.00;82.40
2897;DHT22;1458;49.728;9.228;2022-07-21T09:35:58;24.50;83.10
2897;DHT22;1458;49.728;9.228;2022-07-21T09:38:35;24.70;81.90
2897;DHT22;1458;49.728;9.228;2022-07-21T09:41:09;24.60;79.60
2897;DHT22;1458;49.728;9.228;2022-07-21T09:43:43;24.60;83.20
2897;DHT22;1458;49.728;9.228;2022-07-21T09:46:15;24.70;79.70
2897;DHT22;1458;49.728;9.228;2022-07-21T09:48:45;25.10;79.50
2897;DHT22;1458;49.728;9.228;2022-07-21T09:51:27;25.50;77.40
2897;DHT22;1458;49.728;9.228;2022-07-21T09:53:58;25.90;76.80
2897;DHT22;1458;49.728;9.228;2022-07-21T09:56:32;26.60;75.90
2897;DHT22;1458;49.728;9.228;2022-07-21T09:59:03;26.70;69.40
2897;DHT22;1458;49.728;9.228;2022-07-21T10:01:31;27.00;70.40
2897;DHT22;1458;49.728;9.228;2022-07-21T10:03:59;27.00;68.70
2897;DHT22;1458;49.728;9.228;2022-07-21T10:06:29;27.30;67.40
2897;DHT22;1458;49.728;9.228;2022-07-21T10:08:59;27.40;65.50
2897;DHT22;1458;49.728;9.228;2022-07-21T10:11:28;27.40;64.80
2897;DHT22;1458;49.728;9.228;2022-07-21T10:13:55;27.30;64.50
2897;DHT22;1458;49.728;9.228;2022-07-21T10:16:25;26.80;65.40
2897;DHT22;1458;49.728;9.228;2022-07-21T10:19:16;26.50;65.50
2897;DHT22;1458;49.728;9.228;2022-07-21T10:21:55;26.00;66.30
2897;DHT22;1458;49.728;9.228;2022-07-21T10:24:42;25.60;67.30
2897;DHT22;1458;49.728;9.228;2022-07-21T10:27:12;25.20;68.60
2897;DHT22;1458;49.728;9.228;2022-07-21T10:29:58;25.20;70.10
2897;DHT22;1458;49.728;9.228;2022-07-21T10:32:30;25.00;71.30
2897;DHT22;1458;49.728;9.228;2022-07-21T10:35:00;24.80;71.60
2897;DHT22;1458;49.728;9.228;2022-07-21T10:37:44;24.80;71.30
2897;DHT22;1458;49.728;9.228;2022-07-21T10:40:34;24.90;70.20
2897;DHT22;1458;49.728;9.228;2022-07-21T10:43:41;25.10;69.80
2897;DHT22;1458;49.728;9.228;2022-07-21T10:46:36;25.10;70.40
2897;DHT22;1458;49.728;9.228;2022-07-21T10:49:07;24.80;70.30
2897;DHT22;1458;49.728;9.228;2022-07-21T10:51:37;24.90;72.70
2897;DHT22;1458;49.728;9.228;2022-07-21T10:54:19;25.00;71.70
2897;DHT22;1458;49.728;9.228;2022-07-21T10:57:26;25.00;72.60
2897;DHT22;1458;49.728;9.228;2022-07-21T11:00:20;24.90;71.20
2897;DHT22;1458;49.728;9.228;2022-07-21T11:02:52;24.90;71.80
2897;DHT22;1458;49.728;9.228;2022-07-21T11:05:23;25.10;71.70
2897;DHT22;1458;49.728;9.228;2022-07-21T11:08:10;25.30;71.90
2897;DHT22;1458;49.728;9.228;2022-07-21T11:10:40;25.70;68.10
2897;DHT22;1458;49.728;9.228;2022-07-21T11:13:09;25.90;70.30
2897;DHT22;1458;49.728;9.228;2022-07-21T11:15:47;26.40;68.90
2897;DHT22;1458;49.728;9.228;2022-07-21T11:18:22;26.70;67.70
2897;DHT22;1458;49.728;9.228;2022-07-21T11:21:10;27.10;68.40
2897;DHT22;1458;49.728;9.228;2022-07-21T11:23:44;26.80;66.10
2897;DHT22;1458;49.728;9.228;2022-07-21T11:26:14;26.70;67.30
2897;DHT22;1458;49.728;9.228;2022-07-21T11:28:43;26.40;65.80
2897;DHT22;1458;49.728;9.228;2022-07-21T11:31:15;25.90;66.60
2897;DHT22;1458;49.728;9.228;2022-07-21T11:33:48;25.60;69.00
2897;DHT22;1458;49.728;9.228;2022-07-21T11:36:29;25.40;69.60
2897;DHT22;1458;49.728;9.228;2022-07-21T11:38:59;25.50;69.30
2897;DHT22;1458;49.728;9.228;2022-07-21T11:41:28;25.60;70.90
2897;DHT22;1458;49.728;9.228;2022-07-21T11:43:55;25.60;70.70
2897;DHT22;1458;49.728;9.228;2022-07-21T11:46:23;25.60;70.90
2897;DHT22;1458;49.728;9.228;2022-07-21T11:49:01;25.90;71.30
2897;DHT22;1458;49.728;9.228;2022-07-21T11:51:31;26.40;67.90
2897;DHT22;1458;49.728;9.228;2022-07-21T11:53:59;26.50;66.20
2897;DHT22;1458;49.728;9.228;2022-07-21T11:56:27;26.50;65.80
2897;DHT22;1458;49.728;9.228;2022-07-21T11:59:09;26.50;66.60
2897;DHT22;1458;49.728;9.228;2022-07-21T12:01:52;26.80;65.70
2897;DHT22;1458;49.728;9.228;2022-07-21T12:04:38;27.00;63.50
2897;DHT22;1458;49.728;9.228;2022-07-21T12:07:16;27.00;65.60
2897;DHT22;1458;49.728;9.228;2022-07-21T12:09:48;27.20;64.50
2897;DHT22;1458;49.728;9.228;2022-07-21T12:12:28;26.90;64.30
2897;DHT22;1458;49.728;9.228;2022-07-21T12:14:57;26.70;64.20
2897;DHT22;1458;49.728;9.228;2022-07-21T12:17:34;26.60;64.70
2897;DHT22;1458;49.728;9.228;2022-07-21T12:20:04;26.40;64.80
2897;DHT22;1458;49.728;9.228;2022-07-21T12:22:35;26.40;66.00
2897;DHT22;1458;49.728;9.228;2022-07-21T12:25:05;26.30;63.90
2897;DHT22;1458;49.728;9.228;2022-07-21T12:27:35;26.00;64.50
2897;DHT22;1458;49.728;9.228;2022-07-21T12:30:04;26.10;65.00
2897;DHT22;1458;49.728;9.228;2022-07-21T12:32:42;26.80;65.10
2897;DHT22;1458;49.728;9.228;2022-07-21T12:35:23;27.30;62.80
2897;DHT22;1458;49.728;9.228;2022-07-21T12:37:58;27.10;61.90
2897;DHT22;1458;49.728;9.228;2022-07-21T12:40:29;27.40;61.70
2897;DHT22;1458;49.728;9.228;2022-07-21T12:43:15;27.30;60.50
2897;DHT22;1458;49.728;9.228;2022-07-21T12:45:45;27.20;58.60
2897;DHT22;1458;49.728;9.228;2022-07-21T12:48:15;27.20;56.80
2897;DHT22;1458;49.728;9.228;2022-07-21T12:50:57;27.40;58.50
2897;DHT22;1458;49.728;9.228;2022-07-21T12:53:43;27.70;57.50
2897;DHT22;1458;49.728;9.228;2022-07-21T12:56:14;27.80;55.70
2897;DHT22;1458;49.728;9.228;2022-07-21T12:58:43;28.10;53.10
2897;DHT22;1458;49.728;9.228;2022-07-21T13:01:11;28.20;52.10
2897;DHT22;1458;49.728;9.228;2022-07-21T13:03:39;28.60;52.70
2897;DHT22;1458;49.728;9.228;2022-07-21T13:06:08;28.60;50.40
2897;DHT22;1458;49.728;9.228;2022-07-21T13:08:37;28.50;48.30
2897;DHT22;1458;49.728;9.228;2022-07-21T13:11:12;28.30;48.70
2897;DHT22;1458;49.728;9.228;2022-07-21T13:13:40;28.20;48.30
2897;DHT22;1458;49.728;9.228;2022-07-21T13:16:08;28.20;47.60
2897;DHT22;1458;49.728;9.228;2022-07-21T13:18:35;28.30;48.50
2897;DHT22;1458;49.728;9.228;2022-07-21T13:21:07;28.40;48.50
2897;DHT22;1458;49.728;9.228;2022-07-21T13:23:34;28.60;46.40
2897;DHT22;1458;49.728;9.228;2022-07-21T13:26:09;28.90;45.60
2897;DHT22;1458;49.728;9.228;2022-07-21T13:28:36;28.90;44.90
2897;DHT22;1458;49.728;9.228;2022-07-21T13:31:08;28.70;46.00
2897;DHT22;1458;49.728;9.228;2022-07-21T13:33:36;28.60;45.80
2897;DHT22;1458;49.728;9.228;2022-07-21T13:36:08;28.80;46.40
2897;DHT22;1458;49.728;9.228;2022-07-21T13:38:36;28.80;44.90
2897;DHT22;1458;49.728;9.228;2022-07-21T13:41:07;28.70;45.50
2897;DHT22;1458;49.728;9.228;2022-07-21T13:43:36;28.80;44.10
2897;DHT22;1458;49.728;9.228;2022-07-21T13:46:09;28.60;43.60
2897;DHT22;1458;49.728;9.228;2022-07-21T13:48:37;29.00;44.80
2897;DHT22;1458;49.728;9.228;2022-07-21T13:51:08;29.20;43.60
2897;DHT22;1458;49.728;9.228;2022-07-21T13:53:36;29.30;43.70
2897;DHT22;1458;49.728;9.228;2022-07-21T13:56:07;29.20;41.40
2897;DHT22;1458;49.728;9.228;2022-07-21T13:58:37;29.30;41.30
2897;DHT22;1458;49.728;9.228;2022-07-21T14:01:08;29.30;41.80
2897;DHT22;1458;49.728;9.228;2022-07-21T14:03:36;29.00;39.60
2897;DHT22;1458;49.728;9.228;2022-07-21T14:06:08;28.70;39.10
2897;DHT22;1458;49.728;9.228;2022-07-21T14:08:36;28.70;39.90
2897;DHT22;1458;49.728;9.228;2022-07-21T14:11:10;29.00;38.20
2897;DHT22;1458;49.728;9.228;2022-07-21T14:13:39;29.10;39.80
2897;DHT22;1458;49.728;9.228;2022-07-21T14:16:07;29.30;38.60
2897;DHT22;1458;49.728;9.228;2022-07-21T14:18:35;29.50;38.10
2897;DHT22;1458;49.728;9.228;2022-07-21T14:21:09;29.40;38.10
2897;DHT22;1458;49.728;9.228;2022-07-21T14:23:37;29.40;36.30
2897;DHT22;1458;49.728;9.228;2022-07-21T14:26:07;29.20;36.20
2897;DHT22;1458;49.728;9.228;2022-07-21T14:28:40;29.00;36.20
2897;DHT22;1458;49.728;9.228;2022-07-21T14:31:11;29.10;38.10
2897;DHT22;1458;49.728;9.228;2022-07-21T14:33:40;29.10;36.50
2897;DHT22;1458;49.728;9.228;2022-07-21T14:36:11;29.00;37.70
2897;DHT22;1458;49.728;9.228;2022-07-21T14:38:42;28.80;37.00
2897;DHT22;1458;49.728;9.228;2022-07-21T14:41:16;28.50;36.90
2897;DHT22;1458;49.728;9.228;2022-07-21T14:43:44;28.50;38.70
2897;DHT22;1458;49.728;9.228;2022-07-21T14:46:15;28.60;37.20
2897;DHT22;1458;49.728;9.228;2022-07-21T14:48:44;28.60;38.70
2897;DHT22;1458;49.728;9.228;2022-07-21T14:51:12;28.80;36.60
2897;DHT22;1458;49.728;9.228;2022-07-21T14:53:42;29.00;36.00
2897;DHT22;1458;49.728;9.228;2022-07-21T14:56:10;29.00;34.30
2897;DHT22;1458;49.728;9.228;2022-07-21T14:58:43;28.80;35.40
2897;DHT22;1458;49.728;9.228;2022-07-21T15:01:12;28.40;36.10
2897;DHT22;1458;49.728;9.228;2022-07-21T15:03:40;28.30;38.10
2897;DHT22;1458;49.728;9.228;2022-07-21T15:06:13;28.20;39.50
2897;DHT22;1458;49.728;9.228;2022-07-21T15:08:46;28.20;39.50
2897;DHT22;1458;49.728;9.228;2022-07-21T15:11:15;28.50;39.70
2897;DHT22;1458;49.728;9.228;2022-07-21T15:13:44;28.60;38.00
2897;DHT22;1458;49.728;9.228;2022-07-21T15:16:12;28.50;36.50
2897;DHT22;1458;49.728;9.228;2022-07-21T15:18:40;28.20;38.40
2897;DHT22;1458;49.728;9.228;2022-07-21T15:21:08;28.30;39.00
2897;DHT22;1458;49.728;9.228;2022-07-21T15:23:36;28.60;36.80
2897;DHT22;1458;49.728;9.228;2022-07-21T15:26:07;29.00;37.10
2897;DHT22;1458;49.728;9.228;2022-07-21T15:28:37;29.10;35.10
2897;DHT22;1458;49.728;9.228;2022-07-21T15:31:08;29.10;35.20
2897;DHT22;1458;49.728;9.228;2022-07-21T15:33:37;29.00;35.20
2897;DHT22;1458;49.728;9.228;2022-07-21T15:36:08;28.90;34.20
2897;DHT22;1458;49.728;9.228;2022-07-21T15:38:37;28.80;35.10
2897;DHT22;1458;49.728;9.228;2022-07-21T15:41:08;28.40;36.50
2897;DHT22;1458;49.728;9.228;2022-07-21T15:43:48;28.40;36.50
2897;DHT22;1458;49.728;9.228;2022-07-21T15:46:21;28.70;37.40
2897;DHT22;1458;49.728;9.228;2022-07-21T15:48:50;28.80;36.10
2897;DHT22;1458;49.728;9.228;2022-07-21T15:51:21;29.10;37.00
2897;DHT22;1458;49.728;9.228;2022-07-21T15:53:48;29.50;36.00
2897;DHT22;1458;49.728;9.228;2022-07-21T15:56:17;29.60;34.80
2897;DHT22;1458;49.728;9.228;2022-07-21T15:58:46;29.80;34.80
2897;DHT22;1458;49.728;9.228;2022-07-21T16:01:32;29.90;33.90
2897;DHT22;1458;49.728;9.228;2022-07-21T16:04:00;29.60;33.80
2897;DHT22;1458;49.728;9.228;2022-07-21T16:06:28;29.40;35.80
2897;DHT22;1458;49.728;9.228;2022-07-21T16:08:56;29.50;35.80
2897;DHT22;1458;49.728;9.228;2022-07-21T16:11:25;29.40;33.60
2897;DHT22;1458;49.728;9.228;2022-07-21T16:13:54;29.10;34.40
2897;DHT22;1458;49.728;9.228;2022-07-21T16:16:25;29.00;35.50
2897;DHT22;1458;49.728;9.228;2022-07-21T16:18:55;29.00;36.20
2897;DHT22;1458;49.728;9.228;2022-07-21T16:21:22;28.70;35.90
2897;DHT22;1458;49.728;9.228;2022-07-21T16:23:57;28.60;37.40
2897;DHT22;1458;49.728;9.228;2022-07-21T16:26:25;28.50;37.40